MET'MAP v2.0
soon released !

Expected late october,
this new version will be
more efficient, smarter,
and hosted on a brand new
server x3 powerfull...
...and still free !


Not compatible ?
Try the mobile version !

LOG IN : | Subscribe | Disclaimer | Who is Orbifly ? |
ICAO code :

TAF - LFPC Creil - 11 Nov 2019 21:00 UTC
Data Sources :     NOAA   


- Airport Elevation : 291 ft
- IATA code : CSF
- No reported NOTAMs.


LFPC - Creil

Latest METAR recorded : 0000/00/00 G :11 TAF ETNG 111700Z 1118/1209 22013G25KT 9999 SCT020 BKN030 BECMG 1120/1122 22010G18KT TEMPO 1203/1209 5000 SHRA BKN014TCU
NO TAF


MET'MAP, your aeronautical weather chart ! - Copyright ORBIFLY December 2007

Programming & Development : Alexandra Zaïnal
Co-Developer : Marc-Olivier Méhu
Technical & hardware support : Manuel Goepfert
Concept & Financing : Baudouin d'Aumeries